Time;durP1;ratioP1;P1;durP2;ratioP2;P2;SDS_P1;SDS_P2;PMS_P1;PMS_P2;Temp;Humidity;BMP_temperature;BMP_pressure;BME280_temperature;BME280_humidity;BME280_pressure;Samples;Min_cycle;Max_cycle;Signal;HPM_P1;HPM_P2
2022/07/31 00:02:56;;;;;;;2.90;1.30;;;;;;;15.29;90.98;99939.63;2119539;82;21075;-73
2022/07/31 00:05:57;;;;;;;1.95;1.52;;;;;;;15.29;91.19;99943.64;2115530;82;21151;-71
2022/07/31 00:08:58;;;;;;;1.52;1.42;;;;;;;15.27;91.02;99945.72;2067035;85;21093;-72
2022/07/31 00:11:59;;;;;;;2.35;1.72;;;;;;;15.27;90.92;99947.87;2060171;84;21077;-71
2022/07/31 00:15:05;;;;;;;1.47;1.37;;;;;;;15.28;91.02;99947.35;2079590;84;21604;-75
2022/07/31 00:18:08;;;;;;;1.40;1.30;;;;;;;15.30;90.82;99946.65;2084563;84;20971;-72
2022/07/31 00:21:09;;;;;;;3.52;1.77;;;;;;;15.29;90.84;99951.66;2086848;83;20969;-71
2022/07/31 00:24:10;;;;;;;3.67;1.75;;;;;;;15.27;90.86;99951.06;2079447;83;20996;-72
2022/07/31 00:27:11;;;;;;;2.02;1.55;;;;;;;15.27;90.73;99951.06;2078147;84;21056;-72
2022/07/31 00:30:13;;;;;;;4.35;1.72;;;;;;;15.25;90.76;99949.39;2074184;84;21049;-72
2022/07/31 00:33:14;;;;;;;2.12;1.42;;;;;;;15.25;90.82;99947.23;2074590;84;21050;-72
2022/07/31 00:36:15;;;;;;;1.62;1.50;;;;;;;15.27;90.70;99951.06;2074408;84;21012;-73
2022/07/31 00:39:16;;;;;;;2.58;1.77;;;;;;;15.23;90.99;99951.47;2076771;84;21569;-72
2022/07/31 00:42:19;;;;;;;3.08;1.72;;;;;;;15.23;90.53;99950.13;2078216;84;21026;-73
2022/07/31 00:45:20;;;;;;;1.70;1.60;;;;;;;15.21;90.76;99950.84;2074886;84;21072;-72
2022/07/31 00:48:21;;;;;;;2.52;1.75;;;;;;;15.19;91.72;99959.56;2081816;84;21060;-72
2022/07/31 00:51:22;;;;;;;2.83;1.50;;;;;;;15.20;90.96;99961.23;2074601;84;21057;-71
2022/07/31 00:54:23;;;;;;;1.80;1.70;;;;;;;15.19;90.73;99958.22;2074834;84;21077;-72
2022/07/31 00:57:24;;;;;;;2.70;1.92;;;;;;;15.20;90.70;99952.36;2078189;84;21473;-71
2022/07/31 01:00:25;;;;;;;3.10;2.30;;;;;;;15.20;90.48;99954.55;2075599;83;21073;-73
2022/07/31 01:03:27;;;;;;;2.33;1.67;;;;;;;15.18;90.57;99959.26;2079629;84;21111;-72
2022/07/31 01:06:28;;;;;;;2.00;1.85;;;;;;;15.19;90.62;99959.56;2070887;84;21738;-72
2022/07/31 01:09:29;;;;;;;2.40;1.82;;;;;;;15.18;90.72;99959.78;2071213;84;21085;-73
2022/07/31 01:12:47;;;;;;;3.98;1.90;;;;;;;15.17;90.73;99964.27;2069366;85;21057;-71
2022/07/31 01:15:51;;;;;;;2.12;1.67;;;;;;;15.19;90.73;99964.91;2067752;85;21622;-72
2022/07/31 01:18:55;;;;;;;4.40;1.80;;;;;;;15.21;90.67;99967.39;2071798;85;21072;-73
2022/07/31 01:22:24;;;;;;;2.10;1.57;;;;;;;15.21;90.58;99963.37;2068414;85;21065;-72
2022/07/31 01:25:55;;;;;;;3.05;1.60;;;;;;;15.21;90.55;99958.85;2068432;85;21842;-76
2022/07/31 01:29:13;;;;;;;4.67;1.90;;;;;;;15.19;90.93;99953.39;2066145;85;21556;-72
2022/07/31 01:32:27;;;;;;;2.42;1.75;;;;;;;15.16;90.72;99953.28;2068629;84;21120;-72
2022/07/31 01:35:34;;;;;;;1.77;1.60;;;;;;;15.15;90.68;99961.00;2071889;85;21148;-71
2022/07/31 01:38:39;;;;;;;3.50;1.80;;;;;;;15.14;91.06;99955.32;2068870;85;21045;-72
2022/07/31 01:41:45;;;;;;;2.47;1.80;;;;;;;15.15;90.80;99958.33;2070376;85;21042;-71
2022/07/31 01:44:52;;;;;;;1.72;1.62;;;;;;;15.12;91.14;99954.72;2070145;85;21038;-72
2022/07/31 01:47:55;;;;;;;2.60;1.52;;;;;;;15.10;91.30;99955.42;2071359;85;21516;-72
2022/07/31 01:51:00;;;;;;;1.80;1.70;;;;;;;15.10;90.85;99957.28;2048796;85;21120;-72
2022/07/31 01:54:03;;;;;;;2.08;1.85;;;;;;;15.09;90.81;99957.80;2050791;85;21883;-72
2022/07/31 01:57:06;;;;;;;1.52;1.40;;;;;;;15.08;91.29;99958.80;2070716;85;20978;-71
2022/07/31 02:00:11;;;;;;;3.47;1.80;;;;;;;15.09;91.45;99957.80;2069825;84;21065;-76
2022/07/31 02:03:17;;;;;;;3.08;1.70;;;;;;;15.06;91.13;99955.50;2071137;84;21111;-73
2022/07/31 02:06:20;;;;;;;1.98;1.77;;;;;;;15.09;91.15;99961.80;2078416;84;21088;-72
2022/07/31 02:09:23;;;;;;;1.87;1.50;;;;;;;15.10;91.10;99954.09;2081499;84;21096;-72
2022/07/31 02:12:27;;;;;;;2.00;1.82;;;;;;;15.10;91.35;99951.41;2080822;84;21061;-73
2022/07/31 02:15:31;;;;;;;4.03;2.15;;;;;;;15.11;91.00;99954.39;2065983;84;21532;-73
2022/07/31 02:18:34;;;;;;;2.20;1.72;;;;;;;15.10;91.59;99947.92;2079796;83;21049;-72
2022/07/31 02:21:41;;;;;;;3.05;1.60;;;;;;;15.09;90.83;99950.27;2076579;84;21022;-72
2022/07/31 02:24:42;;;;;;;2.50;1.80;;;;;;;15.04;90.61;99949.55;2078248;84;21529;-71
2022/07/31 02:27:45;;;;;;;2.47;1.70;;;;;;;15.00;90.21;99947.77;2081166;84;21068;-71
2022/07/31 02:30:51;;;;;;;2.42;1.70;;;;;;;14.96;89.92;99943.05;2077336;84;21120;-72
2022/07/31 02:33:53;;;;;;;3.83;1.87;;;;;;;14.94;89.65;99943.74;2083973;84;21033;-71
2022/07/31 02:36:55;;;;;;;2.37;1.70;;;;;;;14.93;89.60;99936.77;2082099;83;21036;-73
2022/07/31 02:39:59;;;;;;;2.55;1.62;;;;;;;14.91;89.41;99936.13;2081329;84;21060;-73
2022/07/31 02:43:00;;;;;;;1.80;1.70;;;;;;;14.89;89.43;99938.98;2085841;83;21049;-74
2022/07/31 02:46:04;;;;;;;3.90;2.17;;;;;;;14.87;89.67;99953.08;2080670;84;21458;-72
2022/07/31 02:49:06;;;;;;;3.45;2.05;;;;;;;14.85;89.39;99956.45;2057950;83;21157;-73
2022/07/31 02:52:08;;;;;;;2.10;1.90;;;;;;;14.83;89.91;99949.66;2082915;83;21029;-72
2022/07/31 02:55:10;;;;;;;2.67;2.15;;;;;;;14.83;89.75;99949.14;2081457;83;21048;-75
2022/07/31 02:58:13;;;;;;;2.22;1.82;;;;;;;14.85;89.93;99947.62;2063055;84;21636;-73
2022/07/31 03:01:14;;;;;;;2.70;2.35;;;;;;;14.85;89.73;99950.28;2078166;84;21005;-71
2022/07/31 03:04:15;;;;;;;2.50;2.30;;;;;;;14.85;89.86;99949.77;2084084;83;21512;-73
2022/07/31 03:07:17;;;;;;;3.45;2.15;;;;;;;14.86;89.81;99953.27;2067135;85;21532;-72
2022/07/31 03:10:19;;;;;;;4.75;2.50;;;;;;;14.86;89.77;99956.75;2069705;85;21557;-72
2022/07/31 03:13:37;;;;;;;5.00;2.67;;;;;;;14.87;89.86;99956.27;2049631;85;21117;-72
2022/07/31 03:16:41;;;;;;;5.90;2.45;;;;;;;14.87;89.88;99961.61;2029419;86;21112;-74
2022/07/31 03:19:42;;;;;;;3.80;2.60;;;;;;;14.89;89.93;99958.20;2012590;86;21618;-72
2022/07/31 03:22:44;;;;;;;3.87;2.67;;;;;;;14.88;89.82;99960.57;2076239;84;21081;-72
2022/07/31 03:25:49;;;;;;;4.20;2.12;;;;;;;14.89;90.00;99954.20;2072974;84;21468;-73
2022/07/31 03:28:51;;;;;;;3.45;2.47;;;;;;;14.91;89.98;99961.51;2078138;84;21422;-72
2022/07/31 03:31:52;;;;;;;2.62;2.42;;;;;;;14.91;89.96;99958.84;2052658;84;21679;-72
2022/07/31 03:34:53;;;;;;;2.92;2.40;;;;;;;14.91;90.16;99958.84;2020791;85;21054;-72
2022/07/31 03:37:54;;;;;;;3.17;2.30;;;;;;;14.92;90.04;99957.31;2082829;84;21140;-72
2022/07/31 03:40:55;;;;;;;2.98;2.47;;;;;;;14.93;90.03;99956.28;2069083;84;21034;-72
2022/07/31 03:43:57;;;;;;;6.03;2.52;;;;;;;14.94;89.91;99963.78;2070895;84;22362;-76
2022/07/31 03:47:00;;;;;;;4.33;2.50;;;;;;;14.98;90.14;99967.72;2068656;84;21068;-72
2022/07/31 03:50:02;;;;;;;3.92;2.70;;;;;;;15.00;90.14;99972.33;2054125;85;21106;-72
2022/07/31 03:53:05;;;;;;;3.33;2.45;;;;;;;15.01;90.15;99971.33;2041303;85;21066;-73
2022/07/31 03:56:08;;;;;;;7.65;2.90;;;;;;;15.02;90.10;99979.13;2051680;85;21069;-76
2022/07/31 03:59:10;;;;;;;8.83;2.60;;;;;;;15.09;90.46;99979.17;2052416;85;21046;-73
2022/07/31 04:02:12;;;;;;;4.47;2.72;;;;;;;15.18;90.47;99972.63;2074872;84;21065;-76
2022/07/31 04:05:14;;;;;;;4.92;2.72;;;;;;;15.28;90.45;99975.42;2072254;84;21085;-73
2022/07/31 04:08:16;;;;;;;4.55;2.83;;;;;;;15.29;90.01;99975.72;2047148;85;21042;-73
2022/07/31 04:11:18;;;;;;;4.03;2.75;;;;;;;15.31;90.02;99967.00;2047385;86;21122;-72
2022/07/31 04:14:19;;;;;;;5.47;2.52;;;;;;;15.33;90.03;99962.28;2047661;86;20978;-73
2022/07/31 04:17:20;;;;;;;2.95;2.52;;;;;;;15.35;90.18;99974.94;2055645;86;21599;-74
2022/07/31 04:20:22;;;;;;;6.50;2.90;;;;;;;15.35;89.89;99973.61;2042207;86;21085;-73
2022/07/31 04:23:23;;;;;;;5.37;3.42;;;;;;;15.36;89.96;99975.24;2042249;86;21057;-72
2022/07/31 04:26:44;;;;;;;4.37;3.37;;;;;;;15.40;89.89;99981.33;2043419;86;21090;-71
2022/07/31 04:29:48;;;;;;;5.90;2.85;;;;;;;15.38;89.76;99977.20;2041308;85;21089;-73
2022/07/31 04:32:49;;;;;;;3.72;3.30;;;;;;;15.47;90.02;99975.99;2043102;85;21057;-76
2022/07/31 04:35:52;;;;;;;4.35;2.87;;;;;;;15.47;89.69;99974.66;2040914;85;21116;-72
2022/07/31 04:38:55;;;;;;;5.03;3.02;;;;;;;15.47;89.57;99974.14;2062752;84;21081;-72
2022/07/31 04:41:57;;;;;;;5.62;3.65;;;;;;;15.51;89.63;99969.20;2065254;85;21847;-73
2022/07/31 04:44:58;;;;;;;5.33;3.30;;;;;;;15.59;89.57;99967.67;2043550;85;21131;-73
2022/07/31 04:48:02;;;;;;;4.10;3.08;;;;;;;15.60;89.17;99976.55;2075702;84;21025;-73
2022/07/31 04:51:05;;;;;;;6.40;3.22;;;;;;;15.63;89.25;99974.28;2070606;84;21067;-72
2022/07/31 04:54:08;;;;;;;6.03;3.17;;;;;;;15.66;89.27;99965.84;2073042;84;21068;-73
2022/07/31 04:57:09;;;;;;;4.62;4.00;;;;;;;15.68;89.15;99967.84;2061594;84;21046;-73
2022/07/31 05:00:11;;;;;;;3.85;3.35;;;;;;;15.72;89.14;99960.23;2073952;84;21033;-75
2022/07/31 05:03:13;;;;;;;7.12;3.15;;;;;;;15.77;89.01;99966.28;2070488;84;21009;-72
2022/07/31 05:06:14;;;;;;;7.50;3.20;;;;;;;15.80;88.97;99967.24;2092699;82;22576;-72
2022/07/31 05:09:22;;;;;;;4.50;3.50;;;;;;;15.85;88.88;99966.09;2118162;82;21085;-73
2022/07/31 05:12:26;;;;;;;6.33;3.30;;;;;;;15.89;88.65;99966.83;2118666;82;21608;-73
2022/07/31 05:15:27;;;;;;;4.22;3.50;;;;;;;15.94;88.70;99967.56;2115610;82;21073;-74
2022/07/31 05:18:29;;;;;;;4.67;3.50;;;;;;;15.95;88.42;99966.52;2118634;83;21074;-73
2022/07/31 05:21:49;;;;;;;7.67;3.47;;;;;;;15.92;87.97;99966.94;2122121;82;21088;-74
2022/07/31 05:25:10;;;;;;;7.25;3.75;;;;;;;15.90;87.97;99963.63;2116794;82;21072;-74
2022/07/31 05:28:13;;;;;;;4.95;3.30;;;;;;;15.87;87.92;99968.05;2116559;83;21041;-73
2022/07/31 05:31:17;;;;;;;5.03;3.50;;;;;;;15.88;88.12;99965.68;2103696;83;20954;-73
2022/07/31 05:34:20;;;;;;;5.83;3.30;;;;;;;15.84;87.91;99969.28;2118689;82;21073;-74
2022/07/31 05:37:23;;;;;;;7.50;3.75;;;;;;;15.83;87.85;99974.86;2116466;83;21073;-73
2022/07/31 05:40:24;;;;;;;7.97;3.58;;;;;;;15.77;87.81;99970.30;2116499;82;20997;-73
2022/07/31 05:43:43;;;;;;;7.87;3.50;;;;;;;15.80;88.01;99970.73;2120043;83;21033;-76
2022/07/31 05:46:49;;;;;;;5.53;3.83;;;;;;;15.79;87.84;99976.28;2116572;82;21069;-74
2022/07/31 05:49:51;;;;;;;6.12;4.00;;;;;;;15.78;87.82;99975.98;2120221;82;21137;-75
2022/07/31 05:52:53;;;;;;;6.65;4.00;;;;;;;15.78;87.88;99970.63;2120483;82;20961;-74
2022/07/31 05:56:13;;;;;;;7.35;4.10;;;;;;;15.79;87.85;99970.92;2117644;82;21493;-75
2022/07/31 05:59:16;;;;;;;8.70;4.42;;;;;;;15.83;87.88;99968.98;2115116;82;21093;-77
2022/07/31 06:02:18;;;;;;;7.92;3.90;;;;;;;15.83;87.62;99966.83;2115636;83;21007;-74
2022/07/31 06:05:24;;;;;;;6.00;3.60;;;;;;;15.82;87.65;99974.53;2114024;82;21192;-74
2022/07/31 06:08:26;;;;;;;5.92;3.65;;;;;;;15.85;87.62;99970.10;2065220;84;21851;-76
2022/07/31 06:11:28;;;;;;;5.03;3.77;;;;;;;15.86;87.66;99978.45;2066375;84;21062;-75
2022/07/31 06:14:30;;;;;;;5.53;4.10;;;;;;;15.83;87.43;99977.53;2093497;83;21072;-77
2022/07/31 06:17:40;;;;;;;8.33;4.25;;;;;;;15.79;87.29;99981.62;2118289;82;21588;-76
2022/07/31 06:20:43;;;;;;;8.65;4.08;;;;;;;15.78;87.23;99982.66;2102898;82;20982;-73
2022/07/31 06:23:44;;;;;;;7.87;4.10;;;;;;;15.78;87.30;99984.00;2119842;82;21088;-74
2022/07/31 06:26:58;;;;;;;7.45;4.20;;;;;;;15.78;87.23;99982.14;2108477;83;21053;-74
2022/07/31 06:29:59;;;;;;;9.40;4.42;;;;;;;15.80;87.16;99977.42;2077209;84;21610;-76
2022/07/31 06:33:00;;;;;;;7.08;4.03;;;;;;;15.80;87.06;99978.77;2076307;84;20957;-74
2022/07/31 06:36:02;;;;;;;9.55;4.45;;;;;;;15.78;87.11;99971.45;2075075;84;21080;-75
2022/07/31 06:39:16;;;;;;;8.85;3.95;;;;;;;15.80;87.00;99973.93;2071071;84;21366;-73
2022/07/31 06:42:35;;;;;;;6.35;4.12;;;;;;;15.83;86.99;99977.53;2074423;84;21042;-74
2022/07/31 06:45:41;;;;;;;7.03;4.00;;;;;;;15.88;87.03;99973.22;2076774;83;21547;-79
2022/07/31 06:49:01;;;;;;;4.45;3.72;;;;;;;15.92;86.93;99970.95;2073153;84;21072;-72
2022/07/31 06:52:03;;;;;;;6.55;3.75;;;;;;;15.95;86.76;99980.42;2071210;84;21042;-73
2022/07/31 06:55:06;;;;;;;7.75;4.00;;;;;;;15.99;86.82;99976.29;2059498;84;21013;-73
2022/07/31 06:58:08;;;;;;;9.68;4.30;;;;;;;16.01;86.56;99979.07;2073851;84;21559;-76
2022/07/31 07:01:09;;;;;;;4.78;3.70;;;;;;;16.00;86.45;99973.42;2072672;84;21457;-74
2022/07/31 07:04:10;;;;;;;6.10;3.90;;;;;;;16.00;86.42;99973.42;2073683;84;20993;-73
2022/07/31 07:07:11;;;;;;;7.65;4.30;;;;;;;16.03;86.50;99968.99;2070025;84;21533;-73
2022/07/31 07:10:12;;;;;;;11.38;4.08;;;;;;;16.08;86.36;99970.54;2070714;85;21050;-77
2022/07/31 07:13:32;;;;;;;8.95;3.70;;;;;;;16.10;86.13;99968.98;2069881;85;21053;-75
2022/07/31 07:16:33;;;;;;;4.22;3.62;;;;;;;16.11;86.00;99966.11;2073609;85;21093;-73
2022/07/31 07:19:40;;;;;;;7.53;4.25;;;;;;;16.11;85.91;99962.62;2069209;85;21887;-73
2022/07/31 07:22:41;;;;;;;9.93;3.92;;;;;;;16.14;85.87;99969.71;2070110;85;21327;-77
2022/07/31 07:25:42;;;;;;;4.40;3.45;;;;;;;16.15;85.83;99974.55;2035434;86;21078;-73
2022/07/31 07:28:45;;;;;;;6.58;4.08;;;;;;;16.20;85.73;99971.26;2035295;85;21605;-72
2022/07/31 07:31:48;;;;;;;10.70;4.20;;;;;;;16.21;85.56;99978.25;2033365;86;21097;-73
2022/07/31 07:34:49;;;;;;;4.35;3.58;;;;;;;16.24;85.55;99975.97;2034091;85;21101;-73
2022/07/31 07:37:53;;;;;;;4.72;3.80;;;;;;;16.24;85.39;99977.83;2118185;82;21015;-73
2022/07/31 07:40:55;;;;;;;7.60;3.98;;;;;;;16.29;85.34;99972.69;2121844;82;21069;-73
2022/07/31 07:43:56;;;;;;;6.87;4.42;;;;;;;16.34;85.26;99972.38;2118148;82;21016;-72
2022/07/31 07:46:59;;;;;;;8.08;4.65;;;;;;;16.39;84.89;99977.60;2116798;82;21556;-71
2022/07/31 07:50:03;;;;;;;6.47;4.35;;;;;;;16.37;84.87;99972.47;2101105;83;21057;-72
2022/07/31 07:53:25;;;;;;;7.03;3.92;;;;;;;16.35;84.72;99975.34;2117317;82;21508;-72
2022/07/31 07:56:45;;;;;;;6.85;3.47;;;;;;;16.36;84.70;99969.50;2117801;82;21033;-72
2022/07/31 07:59:51;;;;;;;7.75;3.80;;;;;;;16.39;84.62;99969.57;2118256;82;21105;-72
2022/07/31 08:03:10;;;;;;;9.58;4.12;;;;;;;16.41;84.62;99972.34;2122759;82;21747;-73
2022/07/31 08:06:13;;;;;;;6.22;4.08;;;;;;;16.46;84.58;99959.69;2122645;82;21116;-72
2022/07/31 08:09:15;;;;;;;8.55;3.50;;;;;;;16.49;84.46;99964.09;2130167;82;21089;-72
2022/07/31 08:12:18;;;;;;;7.72;3.87;;;;;;;16.55;84.41;99959.23;2122087;82;22438;-73
2022/07/31 08:15:37;;;;;;;7.50;3.65;;;;;;;16.62;84.27;99967.28;2078531;83;21379;-71
2022/07/31 08:18:49;;;;;;;8.78;4.00;;;;;;;16.67;84.27;99964.80;2128915;83;21528;-70
2022/07/31 08:21:50;;;;;;;7.30;4.10;;;;;;;16.72;83.99;99966.30;2128641;82;21158;-70
2022/07/31 08:24:51;;;;;;;5.65;3.67;;;;;;;16.79;84.00;99965.81;2130846;82;21057;-70
2022/07/31 08:27:53;;;;;;;8.33;3.80;;;;;;;16.87;83.91;99968.78;2129184;82;21554;-70
2022/07/31 08:30:54;;;;;;;6.97;3.72;;;;;;;16.95;83.76;99976.59;2130604;82;21753;-73
2022/07/31 08:33:55;;;;;;;8.38;4.55;;;;;;;17.05;83.62;99975.31;2130300;82;21041;-71
2022/07/31 08:36:57;;;;;;;6.97;3.60;;;;;;;17.11;83.67;99984.66;2134272;82;21029;-71
2022/07/31 08:39:58;;;;;;;6.97;3.87;;;;;;;17.16;83.12;99988.05;2102182;82;20971;-71
2022/07/31 08:43:00;;;;;;;10.45;4.45;;;;;;;17.18;82.87;99991.35;2107868;82;21089;-71
2022/07/31 08:46:02;;;;;;;7.50;4.35;;;;;;;17.23;82.76;99986.15;2102879;82;21056;-71
2022/07/31 08:49:08;;;;;;;9.38;3.90;;;;;;;17.34;82.81;99986.81;2130125;82;21009;-72
2022/07/31 08:52:17;;;;;;;5.35;3.70;;;;;;;17.41;82.31;99990.30;2128728;82;21057;-70
2022/07/31 08:55:22;;;;;;;12.03;4.05;;;;;;;17.50;82.39;99994.08;2128775;82;21002;-70
2022/07/31 08:58:24;;;;;;;13.25;4.35;;;;;;;17.64;82.14;99995.64;2130557;82;21048;-71
2022/07/31 09:01:25;;;;;;;7.00;4.15;;;;;;;17.74;81.93;99997.34;2130358;82;21007;-71
2022/07/31 09:04:28;;;;;;;6.42;4.10;;;;;;;17.78;80.95;99993.20;2134594;82;22304;-71
2022/07/31 09:07:36;;;;;;;6.12;4.20;;;;;;;17.85;81.33;99993.99;2129412;82;21064;-71
2022/07/31 09:10:39;;;;;;;6.15;3.62;;;;;;;17.89;80.93;99989.82;2127375;82;21023;-71
2022/07/31 09:13:56;;;;;;;5.33;4.08;;;;;;;17.93;80.37;99994.22;2130219;83;21002;-71
2022/07/31 09:17:14;;;;;;;10.48;3.75;;;;;;;18.03;80.29;99983.83;2128576;82;21548;-72
2022/07/31 09:20:26;;;;;;;5.45;3.52;;;;;;;18.10;79.87;99981.08;2129141;82;21049;-72
2022/07/31 09:23:30;;;;;;;7.62;4.08;;;;;;;18.19;79.77;99977.59;2130739;82;20994;-72
2022/07/31 09:26:34;;;;;;;6.03;3.80;;;;;;;18.31;78.81;99973.98;2131250;82;21560;-71
2022/07/31 09:29:39;;;;;;;9.08;3.37;;;;;;;18.38;78.35;99966.67;2129230;82;21013;-71
2022/07/31 09:32:42;;;;;;;4.87;3.33;;;;;;;18.51;78.87;99972.98;2131413;82;21010;-71
2022/07/31 09:35:50;;;;;;;6.62;3.22;;;;;;;18.60;78.11;99972.45;2132076;82;21088;-71
2022/07/31 09:38:52;;;;;;;8.03;3.15;;;;;;;18.72;78.10;99973.05;2132293;82;21056;-73
2022/07/31 09:42:08;;;;;;;3.83;2.90;;;;;;;18.91;77.93;99965.84;2130884;82;21715;-73
2022/07/31 09:45:28;;;;;;;4.95;3.20;;;;;;;19.13;78.02;99966.20;2129360;82;21014;-74
2022/07/31 09:48:36;;;;;;;3.37;2.95;;;;;;;19.28;76.14;99965.80;2134671;82;21109;-73
2022/07/31 09:51:40;;;;;;;5.58;2.80;;;;;;;19.40;76.17;99968.00;2134203;82;21038;-74
2022/07/31 09:54:42;;;;;;;6.03;3.45;;;;;;;19.51;75.17;99966.41;2132612;82;21424;-73
2022/07/31 09:57:55;;;;;;;4.45;3.17;;;;;;;19.53;74.08;99962.44;2129241;82;21068;-73
2022/07/31 10:00:57;;;;;;;6.37;3.27;;;;;;;19.51;73.68;99965.06;2133929;82;21139;-73
2022/07/31 10:04:02;;;;;;;8.45;3.58;;;;;;;19.53;73.64;99968.34;2132038;82;21068;-73
2022/07/31 10:07:05;;;;;;;6.80;3.00;;;;;;;19.66;73.35;99971.70;2130188;82;21022;-72
2022/07/31 10:10:08;;;;;;;4.03;2.98;;;;;;;19.83;73.23;99977.78;2121441;82;21460;-72
2022/07/31 10:13:18;;;;;;;3.92;3.33;;;;;;;20.07;73.53;99973.23;2103174;82;21057;-71
2022/07/31 10:16:21;;;;;;;6.00;2.95;;;;;;;20.29;72.70;99966.75;2120447;82;21021;-74
2022/07/31 10:19:28;;;;;;;6.62;3.33;;;;;;;20.40;72.22;99979.41;2116816;82;21047;-72
2022/07/31 10:22:47;;;;;;;6.70;3.30;;;;;;;20.57;72.60;99984.41;2078687;82;21598;-72
2022/07/31 10:25:53;;;;;;;4.08;2.80;;;;;;;20.74;72.40;99987.73;2121792;82;21000;-72
2022/07/31 10:28:56;;;;;;;6.15;2.87;;;;;;;20.97;71.88;99976.89;2120027;82;21103;-72
2022/07/31 10:31:58;;;;;;;5.35;2.25;;;;;;;21.20;70.75;99984.63;2117867;82;21432;-75
2022/07/31 10:34:59;;;;;;;4.12;2.60;;;;;;;21.50;70.89;99984.42;2117349;82;21602;-76
2022/07/31 10:38:20;;;;;;;3.27;2.40;;;;;;;21.87;69.64;99982.10;2104752;82;21039;-77
2022/07/31 10:42:05;;;;;;;4.67;2.72;;;;;;;22.28;68.85;99980.09;2117737;82;21036;-76
2022/07/31 10:45:17;;;;;;;7.58;2.58;;;;;;;22.54;68.51;99987.23;2120227;82;20997;-78
2022/07/31 10:48:28;;;;;;;4.10;3.05;;;;;;;22.48;67.10;99978.77;2121973;82;21275;-78
2022/07/31 10:51:31;;;;;;;5.95;2.50;;;;;;;22.31;64.73;99974.73;2102691;82;21033;-78
2022/07/31 10:54:41;;;;;;;6.03;2.22;;;;;;;22.28;66.10;99970.64;2121248;82;21012;-79
2022/07/31 10:57:44;;;;;;;6.80;2.30;;;;;;;22.26;65.62;99966.01;2120306;82;21104;-79
2022/07/31 11:01:06;;;;;;;4.77;2.27;;;;;;;22.28;65.15;99965.23;2119550;82;21663;-78
2022/07/31 11:04:28;;;;;;;7.70;2.80;;;;;;;22.21;64.57;99961.88;2125887;82;21081;-78
2022/07/31 11:07:36;;;;;;;2.67;2.20;;;;;;;22.19;63.93;99950.52;2098976;82;21082;-78
2022/07/31 11:10:55;;;;;;;5.70;2.40;;;;;;;22.16;64.82;99946.92;2062912;85;21565;-77
2022/07/31 11:13:59;;;;;;;3.92;2.20;;;;;;;22.25;64.91;99954.11;2064960;84;21072;-77
2022/07/31 11:17:13;;;;;;;3.15;2.22;;;;;;;22.31;64.17;99951.23;2066786;84;21109;-78
2022/07/31 11:20:28;;;;;;;7.65;2.15;;;;;;;22.51;64.14;99954.75;2040673;85;21072;-78
2022/07/31 11:23:31;;;;;;;;;;;;;;;22.69;63.13;99946.86;2048997;85;21062;-78
2022/07/31 11:26:32;;;;;;;6.70;1.82;;;;;;;22.86;62.78;99949.52;2078817;84;20645;-78
2022/07/31 11:29:37;;;;;;;3.77;2.10;;;;;;;23.05;63.23;99942.73;2081372;84;21561;-77
2022/07/31 11:32:38;;;;;;;6.00;2.02;;;;;;;23.22;62.32;99948.07;2058435;84;21001;-78
2022/07/31 11:35:40;;;;;;;4.30;1.87;;;;;;;23.40;61.99;99939.34;2083324;84;21100;-78
2022/07/31 11:38:52;;;;;;;3.25;1.70;;;;;;;23.55;59.05;99939.47;2076015;84;20985;-78
2022/07/31 11:41:51;;;;;;;4.45;1.95;;;;;;;23.42;58.71;99939.87;2079139;85;21680;-79
2022/07/31 11:44:53;;;;;;;3.67;1.85;;;;;;;23.49;59.11;99939.96;2079969;84;21023;-78
2022/07/31 11:47:54;;;;;;;2.75;1.60;;;;;;;23.59;56.83;99935.70;2083483;84;21081;-79
2022/07/31 11:50:56;;;;;;;4.00;1.70;;;;;;;23.51;57.80;99932.95;2076669;84;21018;-79
2022/07/31 11:53:58;;;;;;;2.83;1.92;;;;;;;23.55;57.81;99934.06;2079242;84;21068;-79
2022/07/31 11:57:01;;;;;;;1.77;1.67;;;;;;;23.64;57.28;99933.86;2080336;84;21059;-78
2022/07/31 12:00:13;;;;;;;4.90;1.57;;;;;;;23.70;57.54;99930.15;2082921;84;21558;-78
2022/07/31 12:03:25;;;;;;;3.37;1.70;;;;;;;23.91;57.11;99933.86;2076562;84;21053;-78
2022/07/31 12:06:26;;;;;;;2.02;1.65;;;;;;;23.91;55.38;99935.21;2081441;84;21010;-79
2022/07/31 12:09:30;;;;;;;5.00;1.95;;;;;;;23.83;55.00;99929.45;2116618;82;21042;-79
2022/07/31 12:12:31;;;;;;;1.60;1.50;;;;;;;23.75;55.90;99933.99;2066025;85;21014;-78
2022/07/31 12:15:33;;;;;;;3.00;1.37;;;;;;;23.92;53.40;99929.25;2115562;82;21048;-79
2022/07/31 12:18:52;;;;;;;4.65;1.90;;;;;;;23.88;54.30;99930.86;2125953;82;21032;-78
2022/07/31 12:21:54;;;;;;;3.17;1.80;;;;;;;23.89;55.17;99930.58;2122559;83;21005;-78
2022/07/31 12:24:59;;;;;;;6.20;1.67;;;;;;;23.87;54.15;99937.33;2121482;82;20969;-79
2022/07/31 12:28:02;;;;;;;2.92;1.80;;;;;;;23.78;53.97;99932.93;2118916;83;20990;-79
2022/07/31 12:31:03;;;;;;;1.98;1.60;;;;;;;23.61;52.35;99933.56;2071580;84;21057;-79
2022/07/31 12:34:04;;;;;;;3.33;1.80;;;;;;;23.57;51.56;99934.63;2118305;82;21500;-79
2022/07/31 12:37:13;;;;;;;2.75;1.40;;;;;;;23.57;52.09;99940.59;2087171;84;21631;-79
2022/07/31 12:40:24;;;;;;;2.90;1.65;;;;;;;23.53;52.79;99936.20;2081828;83;21081;-79
2022/07/31 12:43:25;;;;;;;3.15;2.02;;;;;;;23.56;53.39;99937.03;2076228;84;21042;-79
2022/07/31 12:46:36;;;;;;;1.77;1.60;;;;;;;23.74;53.39;99941.82;2074884;84;21066;-79
2022/07/31 12:49:39;;;;;;;3.10;1.52;;;;;;;23.82;52.75;99935.93;2073738;84;21057;-80
2022/07/31 12:52:40;;;;;;;6.95;1.42;;;;;;;23.87;51.79;99935.98;2076898;84;21025;-79
2022/07/31 12:55:42;;;;;;;2.62;1.80;;;;;;;23.96;52.48;99933.06;2060074;84;21117;-79
2022/07/31 12:58:43;;;;;;;2.25;1.42;;;;;;;24.06;53.24;99940.47;2075105;84;21481;-79
2022/07/31 13:01:44;;;;;;;2.72;1.30;;;;;;;24.09;52.37;99942.11;2073806;84;21509;-79
2022/07/31 13:04:46;;;;;;;3.47;1.70;;;;;;;24.00;52.38;99934.19;2072448;84;21030;-79
2022/07/31 13:07:48;;;;;;;4.30;1.80;;;;;;;23.90;50.52;99938.98;2073157;84;21125;-79
2022/07/31 13:10:49;;;;;;;3.65;1.60;;;;;;;23.82;50.80;99945.41;2068096;85;21137;-79
2022/07/31 13:13:55;;;;;;;1.92;1.30;;;;;;;23.76;51.72;99941.03;2070987;85;21509;-79
2022/07/31 13:16:56;;;;;;;3.58;1.50;;;;;;;23.78;50.80;99938.34;2069701;85;21117;-79
2022/07/31 13:19:58;;;;;;;4.35;1.77;;;;;;;23.91;50.91;99938.47;2070287;85;21050;-79
2022/07/31 13:23:01;;;;;;;3.90;1.42;;;;;;;23.86;51.60;99928.39;2071160;85;21604;-79
2022/07/31 13:26:02;;;;;;;8.30;1.82;;;;;;;23.77;50.86;99928.59;2071348;85;21014;-79
2022/07/31 13:29:05;;;;;;;3.12;1.40;;;;;;;23.63;51.15;99925.47;2070662;85;21014;-79
2022/07/31 13:32:07;;;;;;;2.72;1.27;;;;;;;23.68;51.54;99920.61;2071742;84;21093;-79
2022/07/31 13:35:09;;;;;;;7.28;1.42;;;;;;;23.78;51.75;99915.86;2056773;85;21069;-79
2022/07/31 13:38:11;;;;;;;5.00;1.87;;;;;;;23.89;51.44;99914.87;2068466;85;20970;-79
2022/07/31 13:41:34;;;;;;;2.72;1.70;;;;;;;23.57;50.01;99914.31;2072894;85;21172;-79
2022/07/31 13:44:35;;;;;;;2.77;1.57;;;;;;;23.55;51.38;99917.81;2071041;85;21108;-79
2022/07/31 13:47:36;;;;;;;4.08;1.65;;;;;;;23.86;51.27;99918.09;2067727;85;21814;-79
2022/07/31 13:50:41;;;;;;;3.65;1.72;;;;;;;23.94;50.94;99906.78;2055085;85;21018;-79
2022/07/31 13:53:42;;;;;;;5.67;1.50;;;;;;;24.07;51.37;99900.89;2053732;85;21026;-79
2022/07/31 13:56:43;;;;;;;3.42;1.37;;;;;;;24.29;51.03;99899.95;2067600;85;21092;-79
2022/07/31 13:59:44;;;;;;;2.22;1.50;;;;;;;24.44;50.20;99890.59;2072936;85;21022;-79
2022/07/31 14:02:45;;;;;;;1.98;1.22;;;;;;;24.44;49.85;99887.88;2070112;84;21505;-79
2022/07/31 14:05:47;;;;;;;3.22;1.60;;;;;;;24.28;50.42;99867.16;2070664;85;21042;-79
2022/07/31 14:08:49;;;;;;;1.75;1.42;;;;;;;24.51;50.46;99893.86;2081030;84;21061;-79
2022/07/31 14:11:50;;;;;;;2.20;1.62;;;;;;;24.63;48.98;99896.34;2082416;84;21072;-79
2022/07/31 14:14:51;;;;;;;3.45;2.02;;;;;;;24.60;49.64;99897.69;2094358;84;20989;-79
2022/07/31 14:17:52;;;;;;;1.57;1.02;;;;;;;24.51;46.83;99895.22;2083867;83;20994;-79
2022/07/31 14:20:53;;;;;;;2.65;1.12;;;;;;;24.41;47.84;99897.02;2089565;83;21460;-79
2022/07/31 14:23:55;;;;;;;2.70;1.32;;;;;;;24.41;46.96;99890.24;2087304;84;21092;-79
2022/07/31 14:26:56;;;;;;;4.00;1.65;;;;;;;24.48;46.93;99892.22;2085146;83;21010;-79
2022/07/31 14:29:57;;;;;;;3.62;1.12;;;;;;;24.53;46.01;99897.13;2086791;83;21800;-79
2022/07/31 14:32:59;;;;;;;8.20;2.50;;;;;;;24.59;45.90;99890.64;2090190;83;21062;-79